sensor_id;sensor_type;location;lat;lon;timestamp;P1;durP1;ratioP1;P2;durP2;ratioP2
53959;SDS011;39866;48.638;-2.020;2023-04-01T00:00:26;21.80;;;5.28;;
53959;SDS011;39866;48.638;-2.020;2023-04-01T00:02:52;16.58;;;4.50;;
53959;SDS011;39866;48.638;-2.020;2023-04-01T00:05:17;24.05;;;4.72;;
53959;SDS011;39866;48.638;-2.020;2023-04-01T00:07:43;21.25;;;5.55;;
53959;SDS011;39866;48.638;-2.020;2023-04-01T00:10:09;23.77;;;4.88;;
53959;SDS011;39866;48.638;-2.020;2023-04-01T00:12:36;27.13;;;5.20;;
53959;SDS011;39866;48.638;-2.020;2023-04-01T00:15:03;19.35;;;4.50;;
53959;SDS011;39866;48.638;-2.020;2023-04-01T00:17:30;20.60;;;4.60;;
53959;SDS011;39866;48.638;-2.020;2023-04-01T00:19:56;21.67;;;4.70;;
53959;SDS011;39866;48.638;-2.020;2023-04-01T00:22:22;22.92;;;4.72;;
53959;SDS011;39866;48.638;-2.020;2023-04-01T00:24:51;21.88;;;4.50;;
53959;SDS011;39866;48.638;-2.020;2023-04-01T00:27:16;21.20;;;5.10;;
53959;SDS011;39866;48.638;-2.020;2023-04-01T00:29:42;16.30;;;4.32;;
53959;SDS011;39866;48.638;-2.020;2023-04-01T00:32:09;23.17;;;4.75;;
53959;SDS011;39866;48.638;-2.020;2023-04-01T00:34:35;18.48;;;4.97;;
53959;SDS011;39866;48.638;-2.020;2023-04-01T00:37:00;22.98;;;4.90;;
53959;SDS011;39866;48.638;-2.020;2023-04-01T00:39:28;25.85;;;5.38;;
53959;SDS011;39866;48.638;-2.020;2023-04-01T00:41:54;28.52;;;5.15;;
53959;SDS011;39866;48.638;-2.020;2023-04-01T00:44:25;25.42;;;4.82;;
53959;SDS011;39866;48.638;-2.020;2023-04-01T00:46:53;17.75;;;4.82;;
53959;SDS011;39866;48.638;-2.020;2023-04-01T00:49:20;18.45;;;3.83;;
53959;SDS011;39866;48.638;-2.020;2023-04-01T00:51:52;19.35;;;4.90;;
53959;SDS011;39866;48.638;-2.020;2023-04-01T00:54:21;20.67;;;4.50;;
53959;SDS011;39866;48.638;-2.020;2023-04-01T00:56:53;17.27;;;4.75;;
53959;SDS011;39866;48.638;-2.020;2023-04-01T00:59:33;21.52;;;4.30;;
53959;SDS011;39866;48.638;-2.020;2023-04-01T01:02:02;20.58;;;4.65;;
53959;SDS011;39866;48.638;-2.020;2023-04-01T01:04:29;20.60;;;5.30;;
53959;SDS011;39866;48.638;-2.020;2023-04-01T01:07:19;18.75;;;4.90;;
53959;SDS011;39866;48.638;-2.020;2023-04-01T01:12:40;15.27;;;4.63;;
53959;SDS011;39866;48.638;-2.020;2023-04-01T01:23:55;17.20;;;4.20;;
53959;SDS011;39866;48.638;-2.020;2023-04-01T01:26:52;19.92;;;4.72;;
53959;SDS011;39866;48.638;-2.020;2023-04-01T01:37:42;17.17;;;4.22;;
53959;SDS011;39866;48.638;-2.020;2023-04-01T01:40:10;18.98;;;4.28;;
53959;SDS011;39866;48.638;-2.020;2023-04-01T01:42:37;20.05;;;4.57;;
53959;SDS011;39866;48.638;-2.020;2023-04-01T01:45:07;19.35;;;4.93;;
53959;SDS011;39866;48.638;-2.020;2023-04-01T01:47:35;13.18;;;3.58;;
53959;SDS011;39866;48.638;-2.020;2023-04-01T01:50:01;13.82;;;3.40;;
53959;SDS011;39866;48.638;-2.020;2023-04-01T01:52:28;12.45;;;3.30;;
53959;SDS011;39866;48.638;-2.020;2023-04-01T01:54:55;18.52;;;3.55;;
53959;SDS011;39866;48.638;-2.020;2023-04-01T01:57:42;15.45;;;4.30;;
53959;SDS011;39866;48.638;-2.020;2023-04-01T02:00:09;22.25;;;4.85;;
53959;SDS011;39866;48.638;-2.020;2023-04-01T02:02:40;21.70;;;4.78;;
53959;SDS011;39866;48.638;-2.020;2023-04-01T02:05:07;22.80;;;5.10;;
53959;SDS011;39866;48.638;-2.020;2023-04-01T02:07:38;23.08;;;4.78;;
53959;SDS011;39866;48.638;-2.020;2023-04-01T02:10:04;26.90;;;5.45;;
53959;SDS011;39866;48.638;-2.020;2023-04-01T02:12:30;25.08;;;5.47;;
53959;SDS011;39866;48.638;-2.020;2023-04-01T02:15:00;21.10;;;5.25;;
53959;SDS011;39866;48.638;-2.020;2023-04-01T02:17:32;21.02;;;5.00;;
53959;SDS011;39866;48.638;-2.020;2023-04-01T02:19:59;25.88;;;4.78;;
53959;SDS011;39866;48.638;-2.020;2023-04-01T02:22:31;22.67;;;4.65;;
53959;SDS011;39866;48.638;-2.020;2023-04-01T02:24:58;23.88;;;4.45;;
53959;SDS011;39866;48.638;-2.020;2023-04-01T02:27:27;29.67;;;4.80;;
53959;SDS011;39866;48.638;-2.020;2023-04-01T02:29:53;18.80;;;4.60;;
53959;SDS011;39866;48.638;-2.020;2023-04-01T02:32:19;20.60;;;4.45;;
53959;SDS011;39866;48.638;-2.020;2023-04-01T02:34:45;19.58;;;4.90;;
53959;SDS011;39866;48.638;-2.020;2023-04-01T02:37:11;19.65;;;4.97;;
53959;SDS011;39866;48.638;-2.020;2023-04-01T02:39:38;19.48;;;4.38;;
53959;SDS011;39866;48.638;-2.020;2023-04-01T02:42:04;21.65;;;4.60;;
53959;SDS011;39866;48.638;-2.020;2023-04-01T02:44:30;21.20;;;4.45;;
53959;SDS011;39866;48.638;-2.020;2023-04-01T02:46:55;25.90;;;5.15;;
53959;SDS011;39866;48.638;-2.020;2023-04-01T02:49:21;19.98;;;4.50;;
53959;SDS011;39866;48.638;-2.020;2023-04-01T02:51:46;20.30;;;4.38;;
53959;SDS011;39866;48.638;-2.020;2023-04-01T02:54:11;21.17;;;5.50;;
53959;SDS011;39866;48.638;-2.020;2023-04-01T02:56:37;17.08;;;4.53;;
53959;SDS011;39866;48.638;-2.020;2023-04-01T02:59:02;19.20;;;4.10;;
53959;SDS011;39866;48.638;-2.020;2023-04-01T03:01:28;19.05;;;4.07;;
53959;SDS011;39866;48.638;-2.020;2023-04-01T03:03:53;19.33;;;4.25;;
53959;SDS011;39866;48.638;-2.020;2023-04-01T03:06:18;17.77;;;4.32;;
53959;SDS011;39866;48.638;-2.020;2023-04-01T03:08:44;20.77;;;4.18;;
53959;SDS011;39866;48.638;-2.020;2023-04-01T03:11:10;20.50;;;5.03;;
53959;SDS011;39866;48.638;-2.020;2023-04-01T03:13:36;19.90;;;4.10;;
53959;SDS011;39866;48.638;-2.020;2023-04-01T03:16:02;27.42;;;5.20;;
53959;SDS011;39866;48.638;-2.020;2023-04-01T03:18:27;20.90;;;4.78;;
53959;SDS011;39866;48.638;-2.020;2023-04-01T03:20:53;30.05;;;5.50;;
53959;SDS011;39866;48.638;-2.020;2023-04-01T03:23:18;28.83;;;5.50;;
53959;SDS011;39866;48.638;-2.020;2023-04-01T03:25:45;22.20;;;5.18;;
53959;SDS011;39866;48.638;-2.020;2023-04-01T03:28:11;24.42;;;5.07;;
53959;SDS011;39866;48.638;-2.020;2023-04-01T03:30:38;24.25;;;4.90;;
53959;SDS011;39866;48.638;-2.020;2023-04-01T03:33:03;18.50;;;4.18;;
53959;SDS011;39866;48.638;-2.020;2023-04-01T03:35:29;20.15;;;4.70;;
53959;SDS011;39866;48.638;-2.020;2023-04-01T03:37:55;23.17;;;4.43;;
53959;SDS011;39866;48.638;-2.020;2023-04-01T03:40:20;21.25;;;4.80;;
53959;SDS011;39866;48.638;-2.020;2023-04-01T03:42:47;18.20;;;4.38;;
53959;SDS011;39866;48.638;-2.020;2023-04-01T03:45:12;20.58;;;4.72;;
53959;SDS011;39866;48.638;-2.020;2023-04-01T03:47:38;24.05;;;4.53;;
53959;SDS011;39866;48.638;-2.020;2023-04-01T03:50:04;26.30;;;5.93;;
53959;SDS011;39866;48.638;-2.020;2023-04-01T03:52:31;23.55;;;4.88;;
53959;SDS011;39866;48.638;-2.020;2023-04-01T03:54:56;23.80;;;4.60;;
53959;SDS011;39866;48.638;-2.020;2023-04-01T03:57:22;21.15;;;4.70;;
53959;SDS011;39866;48.638;-2.020;2023-04-01T03:59:47;23.15;;;4.95;;
53959;SDS011;39866;48.638;-2.020;2023-04-01T04:02:13;21.83;;;5.22;;
53959;SDS011;39866;48.638;-2.020;2023-04-01T04:04:38;17.77;;;4.85;;
53959;SDS011;39866;48.638;-2.020;2023-04-01T04:07:03;21.95;;;4.50;;
53959;SDS011;39866;48.638;-2.020;2023-04-01T04:09:32;22.35;;;4.70;;
53959;SDS011;39866;48.638;-2.020;2023-04-01T04:11:58;15.75;;;3.97;;
53959;SDS011;39866;48.638;-2.020;2023-04-01T04:14:24;20.30;;;4.03;;
53959;SDS011;39866;48.638;-2.020;2023-04-01T04:16:49;18.13;;;4.13;;
53959;SDS011;39866;48.638;-2.020;2023-04-01T04:19:15;21.80;;;4.47;;
53959;SDS011;39866;48.638;-2.020;2023-04-01T04:21:40;19.30;;;4.47;;
53959;SDS011;39866;48.638;-2.020;2023-04-01T04:24:06;19.02;;;4.00;;
53959;SDS011;39866;48.638;-2.020;2023-04-01T04:26:32;21.00;;;4.30;;
53959;SDS011;39866;48.638;-2.020;2023-04-01T04:28:58;19.13;;;4.25;;
53959;SDS011;39866;48.638;-2.020;2023-04-01T04:31:24;18.60;;;5.00;;
53959;SDS011;39866;48.638;-2.020;2023-04-01T04:33:50;16.08;;;4.60;;
53959;SDS011;39866;48.638;-2.020;2023-04-01T04:36:16;19.05;;;4.43;;
53959;SDS011;39866;48.638;-2.020;2023-04-01T04:38:42;13.57;;;3.63;;
53959;SDS011;39866;48.638;-2.020;2023-04-01T04:41:08;17.08;;;3.65;;
53959;SDS011;39866;48.638;-2.020;2023-04-01T04:43:38;19.33;;;3.95;;
53959;SDS011;39866;48.638;-2.020;2023-04-01T04:46:13;17.50;;;3.90;;
53959;SDS011;39866;48.638;-2.020;2023-04-01T04:48:38;23.05;;;4.10;;
53959;SDS011;39866;48.638;-2.020;2023-04-01T04:51:03;17.05;;;4.18;;
53959;SDS011;39866;48.638;-2.020;2023-04-01T04:53:29;15.80;;;3.75;;
53959;SDS011;39866;48.638;-2.020;2023-04-01T04:55:54;12.82;;;3.97;;
53959;SDS011;39866;48.638;-2.020;2023-04-01T04:58:20;16.50;;;3.97;;
53959;SDS011;39866;48.638;-2.020;2023-04-01T05:00:46;18.83;;;4.07;;
53959;SDS011;39866;48.638;-2.020;2023-04-01T05:03:12;17.80;;;4.25;;
53959;SDS011;39866;48.638;-2.020;2023-04-01T05:05:38;13.55;;;4.05;;
53959;SDS011;39866;48.638;-2.020;2023-04-01T05:08:04;15.13;;;4.35;;
53959;SDS011;39866;48.638;-2.020;2023-04-01T05:10:29;16.25;;;4.57;;
53959;SDS011;39866;48.638;-2.020;2023-04-01T05:12:55;19.85;;;4.30;;
53959;SDS011;39866;48.638;-2.020;2023-04-01T05:15:21;18.23;;;4.32;;
53959;SDS011;39866;48.638;-2.020;2023-04-01T05:17:47;16.65;;;4.40;;
53959;SDS011;39866;48.638;-2.020;2023-04-01T05:20:12;20.70;;;4.30;;
53959;SDS011;39866;48.638;-2.020;2023-04-01T05:22:39;14.73;;;3.65;;
53959;SDS011;39866;48.638;-2.020;2023-04-01T05:25:04;13.88;;;4.00;;
53959;SDS011;39866;48.638;-2.020;2023-04-01T05:27:30;19.42;;;3.83;;
53959;SDS011;39866;48.638;-2.020;2023-04-01T05:29:56;17.88;;;4.20;;
53959;SDS011;39866;48.638;-2.020;2023-04-01T05:32:22;20.42;;;4.60;;
53959;SDS011;39866;48.638;-2.020;2023-04-01T05:34:49;20.75;;;4.50;;
53959;SDS011;39866;48.638;-2.020;2023-04-01T05:37:15;17.00;;;4.90;;
53959;SDS011;39866;48.638;-2.020;2023-04-01T05:39:41;13.70;;;4.07;;
53959;SDS011;39866;48.638;-2.020;2023-04-01T05:42:06;14.95;;;4.53;;
53959;SDS011;39866;48.638;-2.020;2023-04-01T05:44:32;18.13;;;4.40;;
53959;SDS011;39866;48.638;-2.020;2023-04-01T05:46:58;19.42;;;4.40;;
53959;SDS011;39866;48.638;-2.020;2023-04-01T05:49:23;20.48;;;3.85;;
53959;SDS011;39866;48.638;-2.020;2023-04-01T05:51:48;15.65;;;3.92;;
53959;SDS011;39866;48.638;-2.020;2023-04-01T05:54:14;14.80;;;3.97;;
53959;SDS011;39866;48.638;-2.020;2023-04-01T05:56:39;16.40;;;4.25;;
53959;SDS011;39866;48.638;-2.020;2023-04-01T05:59:04;21.67;;;4.55;;
53959;SDS011;39866;48.638;-2.020;2023-04-01T06:01:30;15.93;;;3.70;;
53959;SDS011;39866;48.638;-2.020;2023-04-01T06:03:55;16.05;;;3.83;;
53959;SDS011;39866;48.638;-2.020;2023-04-01T06:06:25;18.17;;;3.92;;
53959;SDS011;39866;48.638;-2.020;2023-04-01T06:08:52;16.77;;;4.53;;
53959;SDS011;39866;48.638;-2.020;2023-04-01T06:22:14;15.15;;;4.13;;
53959;SDS011;39866;48.638;-2.020;2023-04-01T06:25:04;12.95;;;4.35;;
53959;SDS011;39866;48.638;-2.020;2023-04-01T06:47:17;17.65;;;4.57;;
53959;SDS011;39866;48.638;-2.020;2023-04-01T06:50:12;15.60;;;4.18;;
53959;SDS011;39866;48.638;-2.020;2023-04-01T06:58:21;20.58;;;4.15;;
53959;SDS011;39866;48.638;-2.020;2023-04-01T07:00:49;15.00;;;4.47;;
53959;SDS011;39866;48.638;-2.020;2023-04-01T07:03:30;15.88;;;4.07;;
53959;SDS011;39866;48.638;-2.020;2023-04-01T07:05:58;16.55;;;4.18;;
53959;SDS011;39866;48.638;-2.020;2023-04-01T07:08:28;18.40;;;3.80;;
53959;SDS011;39866;48.638;-2.020;2023-04-01T07:10:59;17.77;;;4.43;;
53959;SDS011;39866;48.638;-2.020;2023-04-01T07:13:29;16.40;;;3.65;;
53959;SDS011;39866;48.638;-2.020;2023-04-01T07:18:50;12.52;;;4.18;;
53959;SDS011;39866;48.638;-2.020;2023-04-01T07:21:32;17.27;;;4.75;;
53959;SDS011;39866;48.638;-2.020;2023-04-01T07:24:21;14.80;;;4.03;;
53959;SDS011;39866;48.638;-2.020;2023-04-01T07:26:54;16.83;;;4.32;;
53959;SDS011;39866;48.638;-2.020;2023-04-01T07:29:21;16.65;;;4.38;;
53959;SDS011;39866;48.638;-2.020;2023-04-01T07:31:54;17.70;;;3.78;;
53959;SDS011;39866;48.638;-2.020;2023-04-01T07:34:30;16.70;;;4.60;;
53959;SDS011;39866;48.638;-2.020;2023-04-01T07:37:13;22.33;;;4.70;;
53959;SDS011;39866;48.638;-2.020;2023-04-01T07:42:20;23.23;;;4.55;;
53959;SDS011;39866;48.638;-2.020;2023-04-01T07:50:50;18.52;;;4.57;;
53959;SDS011;39866;48.638;-2.020;2023-04-01T07:56:10;19.25;;;4.25;;
53959;SDS011;39866;48.638;-2.020;2023-04-01T08:04:23;17.75;;;3.97;;
53959;SDS011;39866;48.638;-2.020;2023-04-01T08:09:44;18.15;;;4.60;;
53959;SDS011;39866;48.638;-2.020;2023-04-01T08:12:25;16.08;;;4.22;;
53959;SDS011;39866;48.638;-2.020;2023-04-01T08:15:11;18.77;;;4.80;;
53959;SDS011;39866;48.638;-2.020;2023-04-01T08:17:58;19.48;;;4.45;;
53959;SDS011;39866;48.638;-2.020;2023-04-01T08:20:44;20.20;;;4.55;;
53959;SDS011;39866;48.638;-2.020;2023-04-01T08:23:14;20.38;;;4.03;;
53959;SDS011;39866;48.638;-2.020;2023-04-01T08:25:51;18.88;;;4.72;;
53959;SDS011;39866;48.638;-2.020;2023-04-01T08:31:00;22.23;;;5.25;;
53959;SDS011;39866;48.638;-2.020;2023-04-01T08:33:31;18.73;;;4.30;;
53959;SDS011;39866;48.638;-2.020;2023-04-01T08:35:59;21.10;;;5.10;;
53959;SDS011;39866;48.638;-2.020;2023-04-01T08:39:04;23.65;;;4.90;;
53959;SDS011;39866;48.638;-2.020;2023-04-01T08:47:12;22.70;;;5.22;;
53959;SDS011;39866;48.638;-2.020;2023-04-01T08:50:01;24.63;;;5.68;;
53959;SDS011;39866;48.638;-2.020;2023-04-01T09:00:53;16.35;;;4.60;;
53959;SDS011;39866;48.638;-2.020;2023-04-01T09:17:59;13.55;;;4.10;;
53959;SDS011;39866;48.638;-2.020;2023-04-01T09:50:35;29.02;;;5.53;;
53959;SDS011;39866;48.638;-2.020;2023-04-01T09:56:17;22.63;;;5.05;;
53959;SDS011;39866;48.638;-2.020;2023-04-01T10:21:09;22.15;;;4.57;;
53959;SDS011;39866;48.638;-2.020;2023-04-01T10:45:19;31.58;;;6.22;;
53959;SDS011;39866;48.638;-2.020;2023-04-01T10:48:12;24.92;;;5.60;;
53959;SDS011;39866;48.638;-2.020;2023-04-01T10:51:01;26.95;;;6.18;;
53959;SDS011;39866;48.638;-2.020;2023-04-01T10:53:38;28.27;;;5.60;;
53959;SDS011;39866;48.638;-2.020;2023-04-01T10:56:24;25.30;;;5.65;;
53959;SDS011;39866;48.638;-2.020;2023-04-01T11:07:38;21.13;;;5.47;;
53959;SDS011;39866;48.638;-2.020;2023-04-01T11:36:06;26.02;;;6.10;;
53959;SDS011;39866;48.638;-2.020;2023-04-01T11:38:39;35.55;;;7.07;;
53959;SDS011;39866;48.638;-2.020;2023-04-01T11:41:22;38.42;;;7.50;;
53959;SDS011;39866;48.638;-2.020;2023-04-01T11:46:48;23.65;;;5.88;;
53959;SDS011;39866;48.638;-2.020;2023-04-01T11:57:53;24.98;;;5.50;;
53959;SDS011;39866;48.638;-2.020;2023-04-01T12:03:31;27.67;;;6.15;;
53959;SDS011;39866;48.638;-2.020;2023-04-01T12:06:19;32.65;;;6.15;;
53959;SDS011;39866;48.638;-2.020;2023-04-01T12:09:04;29.35;;;6.35;;
53959;SDS011;39866;48.638;-2.020;2023-04-01T12:30:32;31.80;;;6.18;;
53959;SDS011;39866;48.638;-2.020;2023-04-01T12:33:52;27.90;;;5.85;;
53959;SDS011;39866;48.638;-2.020;2023-04-01T12:44:28;37.30;;;6.35;;
53959;SDS011;39866;48.638;-2.020;2023-04-01T12:55:38;34.75;;;6.45;;
53959;SDS011;39866;48.638;-2.020;2023-04-01T13:01:35;28.38;;;6.10;;
53959;SDS011;39866;48.638;-2.020;2023-04-01T13:15:14;36.25;;;6.18;;
53959;SDS011;39866;48.638;-2.020;2023-04-01T13:20:36;32.90;;;6.80;;
53959;SDS011;39866;48.638;-2.020;2023-04-01T13:23:14;29.63;;;5.50;;
53959;SDS011;39866;48.638;-2.020;2023-04-01T13:28:44;36.30;;;6.28;;
53959;SDS011;39866;48.638;-2.020;2023-04-01T13:31:33;28.10;;;6.13;;
53959;SDS011;39866;48.638;-2.020;2023-04-01T13:37:06;23.95;;;6.28;;
53959;SDS011;39866;48.638;-2.020;2023-04-01T13:40:04;24.85;;;5.88;;
53959;SDS011;39866;48.638;-2.020;2023-04-01T13:42:40;30.70;;;5.88;;
53959;SDS011;39866;48.638;-2.020;2023-04-01T13:45:20;24.45;;;5.90;;
53959;SDS011;39866;48.638;-2.020;2023-04-01T13:53:42;28.88;;;6.00;;
53959;SDS011;39866;48.638;-2.020;2023-04-01T13:59:24;35.85;;;6.25;;
53959;SDS011;39866;48.638;-2.020;2023-04-01T14:19:20;31.45;;;6.32;;
53959;SDS011;39866;48.638;-2.020;2023-04-01T14:22:56;38.03;;;6.53;;
53959;SDS011;39866;48.638;-2.020;2023-04-01T14:27:49;31.75;;;5.70;;
53959;SDS011;39866;48.638;-2.020;2023-04-01T14:30:40;29.67;;;5.85;;
53959;SDS011;39866;48.638;-2.020;2023-04-01T14:41:48;34.53;;;6.75;;
53959;SDS011;39866;48.638;-2.020;2023-04-01T14:47:24;24.30;;;4.93;;
53959;SDS011;39866;48.638;-2.020;2023-04-01T14:50:15;23.52;;;5.32;;
53959;SDS011;39866;48.638;-2.020;2023-04-01T14:52:54;19.03;;;4.87;;
53959;SDS011;39866;48.638;-2.020;2023-04-01T15:09:06;29.45;;;5.20;;
53959;SDS011;39866;48.638;-2.020;2023-04-01T15:14:19;22.65;;;4.97;;
53959;SDS011;39866;48.638;-2.020;2023-04-01T15:25:45;26.55;;;5.78;;
53959;SDS011;39866;48.638;-2.020;2023-04-01T15:42:52;25.60;;;5.20;;
53959;SDS011;39866;48.638;-2.020;2023-04-01T15:57:03;18.05;;;4.60;;
53959;SDS011;39866;48.638;-2.020;2023-04-01T15:59:42;13.05;;;3.60;;
53959;SDS011;39866;48.638;-2.020;2023-04-01T16:02:23;19.35;;;4.32;;
53959;SDS011;39866;48.638;-2.020;2023-04-01T16:05:08;16.05;;;3.97;;
53959;SDS011;39866;48.638;-2.020;2023-04-01T16:22:14;22.83;;;4.72;;
53959;SDS011;39866;48.638;-2.020;2023-04-01T16:24:47;21.65;;;4.50;;
53959;SDS011;39866;48.638;-2.020;2023-04-01T16:29:51;25.17;;;4.78;;
53959;SDS011;39866;48.638;-2.020;2023-04-01T16:32:37;22.92;;;4.80;;
53959;SDS011;39866;48.638;-2.020;2023-04-01T16:35:31;14.27;;;3.50;;
53959;SDS011;39866;48.638;-2.020;2023-04-01T16:43:28;16.67;;;3.75;;
53959;SDS011;39866;48.638;-2.020;2023-04-01T16:51:52;21.23;;;4.20;;
53959;SDS011;39866;48.638;-2.020;2023-04-01T16:57:24;16.92;;;3.83;;
53959;SDS011;39866;48.638;-2.020;2023-04-01T17:00:23;21.38;;;4.10;;
53959;SDS011;39866;48.638;-2.020;2023-04-01T17:03:03;21.95;;;4.97;;
53959;SDS011;39866;48.638;-2.020;2023-04-01T17:06:01;20.50;;;4.75;;
53959;SDS011;39866;48.638;-2.020;2023-04-01T17:11:19;16.88;;;4.25;;
53959;SDS011;39866;48.638;-2.020;2023-04-01T17:27:27;23.15;;;4.80;;
53959;SDS011;39866;48.638;-2.020;2023-04-01T17:35:11;20.40;;;4.68;;
53959;SDS011;39866;48.638;-2.020;2023-04-01T17:55:53;20.42;;;4.68;;
53959;SDS011;39866;48.638;-2.020;2023-04-01T17:58:29;19.23;;;4.22;;
53959;SDS011;39866;48.638;-2.020;2023-04-01T18:01:05;20.63;;;4.43;;
53959;SDS011;39866;48.638;-2.020;2023-04-01T18:15:32;18.87;;;4.80;;
53959;SDS011;39866;48.638;-2.020;2023-04-01T18:18:06;18.95;;;3.60;;
53959;SDS011;39866;48.638;-2.020;2023-04-01T18:26:04;12.15;;;3.80;;
53959;SDS011;39866;48.638;-2.020;2023-04-01T18:28:36;19.23;;;4.32;;
53959;SDS011;39866;48.638;-2.020;2023-04-01T18:31:22;16.92;;;3.30;;
53959;SDS011;39866;48.638;-2.020;2023-04-01T18:36:49;12.88;;;3.47;;
53959;SDS011;39866;48.638;-2.020;2023-04-01T18:58:32;17.40;;;3.83;;
53959;SDS011;39866;48.638;-2.020;2023-04-01T19:01:10;12.68;;;3.22;;
53959;SDS011;39866;48.638;-2.020;2023-04-01T19:03:45;13.38;;;2.92;;
53959;SDS011;39866;48.638;-2.020;2023-04-01T19:09:48;15.38;;;3.63;;
53959;SDS011;39866;48.638;-2.020;2023-04-01T19:18:28;14.57;;;3.53;;
53959;SDS011;39866;48.638;-2.020;2023-04-01T19:26:57;16.70;;;3.85;;
53959;SDS011;39866;48.638;-2.020;2023-04-01T19:35:44;18.50;;;4.32;;
53959;SDS011;39866;48.638;-2.020;2023-04-01T19:46:48;13.68;;;3.47;;
53959;SDS011;39866;48.638;-2.020;2023-04-01T19:52:04;15.07;;;3.55;;
53959;SDS011;39866;48.638;-2.020;2023-04-01T19:57:46;14.27;;;3.10;;
53959;SDS011;39866;48.638;-2.020;2023-04-01T20:00:24;15.25;;;3.20;;
53959;SDS011;39866;48.638;-2.020;2023-04-01T20:02:58;18.00;;;3.67;;
53959;SDS011;39866;48.638;-2.020;2023-04-01T20:05:38;13.40;;;3.20;;
53959;SDS011;39866;48.638;-2.020;2023-04-01T20:08:38;21.88;;;3.97;;
53959;SDS011;39866;48.638;-2.020;2023-04-01T20:11:16;19.77;;;3.80;;
53959;SDS011;39866;48.638;-2.020;2023-04-01T20:16:14;14.15;;;3.33;;
53959;SDS011;39866;48.638;-2.020;2023-04-01T20:26:43;13.20;;;3.53;;
53959;SDS011;39866;48.638;-2.020;2023-04-01T20:37:12;15.13;;;3.40;;
53959;SDS011;39866;48.638;-2.020;2023-04-01T20:39:44;15.25;;;3.22;;
53959;SDS011;39866;48.638;-2.020;2023-04-01T20:42:16;13.73;;;3.23;;
53959;SDS011;39866;48.638;-2.020;2023-04-01T20:50:52;16.70;;;3.95;;
53959;SDS011;39866;48.638;-2.020;2023-04-01T20:54:11;13.93;;;3.33;;
53959;SDS011;39866;48.638;-2.020;2023-04-01T20:56:32;16.00;;;3.35;;
53959;SDS011;39866;48.638;-2.020;2023-04-01T20:59:09;16.35;;;3.42;;
53959;SDS011;39866;48.638;-2.020;2023-04-01T21:07:11;19.02;;;3.65;;
53959;SDS011;39866;48.638;-2.020;2023-04-01T21:12:49;14.20;;;3.47;;
53959;SDS011;39866;48.638;-2.020;2023-04-01T21:29:51;13.25;;;3.22;;
53959;SDS011;39866;48.638;-2.020;2023-04-01T21:32:36;15.70;;;3.47;;
53959;SDS011;39866;48.638;-2.020;2023-04-01T21:41:02;11.13;;;3.20;;
53959;SDS011;39866;48.638;-2.020;2023-04-01T21:43:40;20.58;;;3.53;;
53959;SDS011;39866;48.638;-2.020;2023-04-01T21:46:30;16.17;;;3.50;;
53959;SDS011;39866;48.638;-2.020;2023-04-01T21:57:13;13.25;;;3.15;;
53959;SDS011;39866;48.638;-2.020;2023-04-01T22:02:47;12.48;;;3.60;;
53959;SDS011;39866;48.638;-2.020;2023-04-01T22:13:46;9.85;;;3.33;;
53959;SDS011;39866;48.638;-2.020;2023-04-01T22:16:17;10.43;;;3.28;;
53959;SDS011;39866;48.638;-2.020;2023-04-01T22:18:52;13.15;;;3.13;;
53959;SDS011;39866;48.638;-2.020;2023-04-01T22:21:29;14.10;;;3.60;;
53959;SDS011;39866;48.638;-2.020;2023-04-01T22:32:49;10.57;;;3.67;;
53959;SDS011;39866;48.638;-2.020;2023-04-01T22:40:44;13.13;;;3.75;;
53959;SDS011;39866;48.638;-2.020;2023-04-01T22:43:16;14.52;;;4.25;;
53959;SDS011;39866;48.638;-2.020;2023-04-01T22:51:38;12.73;;;3.72;;
53959;SDS011;39866;48.638;-2.020;2023-04-01T22:57:00;10.35;;;3.45;;
53959;SDS011;39866;48.638;-2.020;2023-04-01T22:59:44;10.98;;;3.28;;
53959;SDS011;39866;48.638;-2.020;2023-04-01T23:02:21;13.57;;;4.10;;
53959;SDS011;39866;48.638;-2.020;2023-04-01T23:04:52;12.82;;;4.18;;
53959;SDS011;39866;48.638;-2.020;2023-04-01T23:13:10;11.30;;;4.00;;
53959;SDS011;39866;48.638;-2.020;2023-04-01T23:15:39;13.27;;;4.20;;
53959;SDS011;39866;48.638;-2.020;2023-04-01T23:18:16;14.05;;;4.15;;
53959;SDS011;39866;48.638;-2.020;2023-04-01T23:29:17;12.27;;;3.28;;
53959;SDS011;39866;48.638;-2.020;2023-04-01T23:31:47;9.80;;;3.67;;
53959;SDS011;39866;48.638;-2.020;2023-04-01T23:34:25;17.88;;;3.88;;
53959;SDS011;39866;48.638;-2.020;2023-04-01T23:36:57;12.77;;;3.88;;
53959;SDS011;39866;48.638;-2.020;2023-04-01T23:39:30;10.57;;;3.50;;
53959;SDS011;39866;48.638;-2.020;2023-04-01T23:42:00;14.32;;;3.53;;
53959;SDS011;39866;48.638;-2.020;2023-04-01T23:44:28;15.73;;;3.50;;
53959;SDS011;39866;48.638;-2.020;2023-04-01T23:46:56;10.88;;;3.63;;
53959;SDS011;39866;48.638;-2.020;2023-04-01T23:49:45;14.95;;;3.55;;
53959;SDS011;39866;48.638;-2.020;2023-04-01T23:52:17;12.00;;;3.45;;
53959;SDS011;39866;48.638;-2.020;2023-04-01T23:57:31;15.65;;;3.50;;
